createdAt,value
2019-02-04T00:00:54.268Z,96.27
2019-02-04T00:03:23.578Z,96.31
2019-02-04T00:05:52.808Z,94.27
2019-02-04T00:08:22.053Z,94.76
2019-02-04T00:10:53.924Z,96.94
2019-02-04T00:13:23.157Z,97.21
2019-02-04T00:15:52.394Z,95.75
2019-02-04T00:18:21.644Z,96.29
2019-02-04T00:20:50.867Z,96.21
2019-02-04T00:23:20.414Z,97.23
2019-02-04T00:25:49.643Z,98.30
2019-02-04T00:28:18.888Z,98.39
2019-02-04T00:30:48.138Z,97.90
2019-02-04T00:33:17.417Z,97.86
2019-02-04T00:35:46.661Z,97.31
2019-02-04T00:38:16.287Z,96.80
2019-02-04T00:40:45.511Z,95.53
2019-02-04T00:43:14.866Z,95.59
2019-02-04T00:45:44.099Z,96.99
2019-02-04T00:48:13.337Z,95.35
2019-02-04T00:50:42.651Z,96.30
2019-02-04T00:53:11.966Z,96.93
2019-02-04T00:55:41.216Z,97.60
2019-02-04T00:58:10.448Z,97.39
2019-02-04T01:00:39.737Z,97.50
2019-02-04T01:03:09.026Z,96.89
2019-02-04T01:05:38.277Z,96.95
2019-02-04T01:08:07.580Z,96.77
2019-02-04T01:10:36.864Z,96.27
2019-02-04T01:13:06.150Z,96.40
2019-02-04T01:15:35.407Z,96.40
2019-02-04T01:18:04.814Z,96.18
2019-02-04T01:20:34.120Z,96.73
2019-02-04T01:23:03.354Z,96.86
2019-02-04T01:25:32.600Z,97.66
2019-02-04T01:28:01.843Z,97.68
2019-02-04T01:30:31.070Z,97.86
2019-02-04T01:33:00.302Z,97.60
2019-02-04T01:35:29.860Z,97.71
2019-02-04T01:37:59.113Z,98.53
2019-02-04T01:40:28.336Z,98.65
2019-02-04T01:42:57.612Z,98.65
2019-02-04T01:45:26.850Z,97.79
2019-02-04T01:47:56.102Z,97.93
2019-02-04T01:50:26.339Z,98.87
2019-02-04T01:52:55.615Z,97.75
2019-02-04T01:55:24.878Z,97.67
2019-02-04T01:57:55.270Z,97.46
2019-02-04T02:00:27.065Z,97.29
2019-02-04T02:02:56.590Z,97.74
2019-02-04T02:05:25.846Z,98.12
2019-02-04T02:07:56.287Z,98.69
2019-02-04T02:10:26.859Z,97.92
2019-02-04T02:12:56.355Z,99.58
2019-02-04T02:15:25.660Z,99.60
2019-02-04T02:17:56.828Z,99.87
2019-02-04T02:20:27.411Z,100.00
2019-02-04T02:22:57.686Z,100.00
2019-02-04T02:25:26.922Z,100.00
2019-02-04T02:27:56.258Z,100.00
2019-02-04T02:30:31.216Z,100.00
2019-02-04T02:33:00.492Z,100.00
2019-02-04T02:35:29.731Z,100.00
2019-02-04T02:37:59.052Z,100.00
2019-02-04T02:40:30.739Z,100.00
2019-02-04T02:43:00.290Z,100.00
2019-02-04T02:45:29.700Z,99.96
2019-02-04T02:47:58.924Z,99.13
2019-02-04T02:50:28.172Z,98.52
2019-02-04T02:52:58.384Z,100.00
2019-02-04T02:55:28.668Z,100.00
2019-02-04T02:57:58.173Z,100.00
2019-02-04T03:00:28.473Z,100.00
2019-02-04T03:02:57.784Z,99.72
2019-02-04T03:05:27.198Z,98.83
2019-02-04T03:07:56.502Z,99.36
2019-02-04T03:10:27.862Z,100.00
2019-02-04T03:12:57.171Z,99.85
2019-02-04T03:15:26.481Z,99.77
2019-02-04T03:17:57.727Z,100.00
2019-02-04T03:20:26.965Z,99.66
2019-02-04T03:22:56.286Z,100.00
2019-02-04T03:25:25.901Z,100.00
2019-02-04T03:27:55.131Z,100.00
2019-02-04T03:30:30.926Z,100.00
2019-02-04T03:33:00.249Z,100.00
2019-02-04T03:35:29.524Z,100.00
2019-02-04T03:37:59.118Z,100.00
2019-02-04T03:40:30.099Z,100.00
2019-02-04T03:42:59.360Z,100.00
2019-02-04T03:45:29.551Z,99.97
2019-02-04T03:48:05.816Z,99.61
2019-02-04T03:50:29.856Z,98.21
2019-02-04T03:52:59.334Z,98.71
2019-02-04T03:55:28.715Z,99.47
2019-02-04T03:57:58.962Z,100.00
2019-02-04T04:00:30.818Z,100.00
2019-02-04T04:03:00.181Z,100.00
2019-02-04T04:05:29.592Z,100.00
2019-02-04T04:07:58.831Z,100.00
2019-02-04T04:10:28.091Z,100.00
2019-02-04T04:12:57.364Z,100.00
2019-02-04T04:15:26.642Z,100.00
2019-02-04T04:17:55.907Z,100.00
2019-02-04T04:20:25.166Z,99.50
2019-02-04T04:22:54.403Z,99.07
2019-02-04T04:25:23.657Z,99.22
2019-02-04T04:27:52.914Z,99.13
2019-02-04T04:30:24.945Z,99.81
2019-02-04T04:32:55.094Z,98.58
2019-02-04T04:35:24.339Z,99.48
2019-02-04T04:37:53.644Z,99.04
2019-02-04T04:40:23.053Z,98.66
2019-02-04T04:42:52.474Z,99.05
2019-02-04T04:45:23.516Z,99.17
2019-02-04T04:47:53.624Z,97.78
2019-02-04T04:50:23.227Z,97.59
2019-02-04T04:52:52.821Z,98.34
2019-02-04T04:55:26.336Z,99.93
2019-02-04T04:57:56.871Z,100.00
2019-02-04T05:00:28.990Z,98.33
2019-02-04T05:02:58.420Z,98.47
2019-02-04T05:05:28.268Z,99.79
2019-02-04T05:07:57.542Z,100.00
2019-02-04T05:10:27.824Z,99.82
2019-02-04T05:12:57.222Z,99.49
2019-02-04T05:15:27.684Z,99.02
2019-02-04T05:17:57.001Z,100.00
2019-02-04T05:20:26.339Z,100.00
2019-02-04T05:22:55.669Z,96.38
2019-02-04T05:25:24.931Z,97.04
2019-02-04T05:27:55.472Z,98.44
2019-02-04T05:30:25.481Z,100.00
2019-02-04T05:32:54.804Z,100.00
2019-02-04T05:35:24.163Z,100.00
2019-02-04T05:37:53.766Z,100.00
2019-02-04T05:40:24.124Z,100.00
2019-02-04T05:42:53.356Z,100.00
2019-02-04T05:45:22.752Z,100.00
2019-02-04T05:47:52.072Z,100.00
2019-02-04T05:50:21.354Z,100.00
2019-02-04T05:52:51.330Z,100.00
2019-02-04T05:55:22.401Z,100.00
2019-02-04T05:57:51.687Z,100.00
2019-02-04T06:00:24.796Z,100.00
2019-02-04T06:02:54.154Z,100.00
2019-02-04T06:05:23.382Z,100.00
2019-02-04T06:07:52.646Z,100.00
2019-02-04T06:10:22.879Z,100.00
2019-02-04T06:12:52.158Z,100.00
2019-02-04T06:15:21.480Z,100.00
2019-02-04T06:17:50.935Z,100.00
2019-02-04T06:20:22.734Z,100.00
2019-02-04T06:22:52.376Z,100.00
2019-02-04T06:25:21.647Z,100.00
2019-02-04T06:27:50.894Z,100.00
2019-02-04T06:30:25.984Z,100.00
2019-02-04T06:32:55.296Z,100.00
2019-02-04T06:35:24.553Z,100.00
2019-02-04T06:37:53.794Z,100.00
2019-02-04T06:40:23.024Z,100.00
2019-02-04T06:42:53.247Z,100.00
2019-02-04T06:45:22.501Z,100.00
2019-02-04T06:47:53.777Z,100.00
2019-02-04T06:50:23.291Z,100.00
2019-02-04T06:52:52.544Z,100.00
2019-02-04T06:55:30.949Z,100.00
2019-02-04T06:58:00.228Z,100.00
2019-02-04T07:00:29.529Z,100.00
2019-02-04T07:02:59.166Z,100.00
2019-02-04T07:05:28.424Z,100.00
2019-02-04T07:07:59.648Z,100.00
2019-02-04T07:10:28.939Z,100.00
2019-02-04T07:12:58.456Z,100.00
2019-02-04T07:15:27.794Z,100.00
2019-02-04T07:18:01.513Z,100.00
2019-02-04T07:20:28.360Z,100.00
2019-02-04T07:22:57.617Z,100.00
2019-02-04T07:25:26.944Z,100.00
2019-02-04T07:27:56.190Z,100.00
2019-02-04T07:30:27.679Z,100.00
2019-02-04T07:32:59.115Z,100.00
2019-02-04T07:35:28.388Z,100.00
2019-02-04T07:37:57.715Z,100.00
2019-02-04T07:40:34.343Z,100.00
2019-02-04T07:43:03.574Z,100.00
2019-02-04T07:45:33.173Z,100.00
2019-02-04T07:48:02.488Z,100.00
2019-02-04T07:50:31.707Z,99.96
2019-02-04T07:53:00.937Z,99.93
2019-02-04T07:55:30.192Z,99.44
2019-02-04T07:57:59.507Z,99.67
2019-02-04T08:00:33.570Z,98.97
2019-02-04T08:03:02.799Z,99.18
2019-02-04T08:05:33.017Z,99.11
2019-02-04T08:08:02.100Z,98.94
2019-02-04T08:10:31.305Z,98.87
2019-02-04T08:13:02.102Z,98.84
2019-02-04T08:15:34.552Z,98.70
2019-02-04T08:18:04.064Z,97.70
2019-02-04T08:20:33.292Z,97.77
2019-02-04T08:23:02.611Z,97.43
2019-02-04T08:25:31.881Z,96.75
2019-02-04T08:28:01.162Z,96.26
2019-02-04T08:30:37.969Z,96.71
2019-02-04T08:33:06.345Z,95.89
2019-02-04T08:35:35.660Z,95.83
2019-02-04T08:38:05.284Z,95.24
2019-02-04T08:40:34.938Z,95.21
2019-02-04T08:43:04.437Z,95.53
2019-02-04T08:45:34.601Z,95.13
2019-02-04T08:48:04.377Z,94.62
2019-02-04T08:50:33.627Z,94.39
2019-02-04T08:53:03.862Z,94.48
2019-02-04T08:55:33.549Z,94.57
2019-02-04T08:58:08.726Z,94.17
2019-02-04T09:00:38.913Z,93.02
2019-02-04T09:03:09.144Z,93.29
2019-02-04T09:05:38.400Z,92.48
2019-02-04T09:08:07.645Z,93.31
2019-02-04T09:10:38.237Z,93.43
2019-02-04T09:13:07.501Z,92.75
2019-02-04T09:15:36.812Z,92.34
2019-02-04T09:18:06.151Z,93.47
2019-02-04T09:20:36.389Z,93.01
2019-02-04T09:23:06.858Z,92.96
2019-02-04T09:25:37.366Z,92.36
2019-02-04T09:28:06.645Z,92.53
2019-02-04T09:30:37.796Z,92.87
2019-02-04T09:33:07.102Z,92.26
2019-02-04T09:35:37.380Z,92.48
2019-02-04T09:38:06.661Z,92.37
2019-02-04T09:40:41.118Z,92.41
2019-02-04T09:43:12.363Z,92.33
2019-02-04T09:45:42.666Z,92.18
2019-02-04T09:48:15.363Z,91.32
2019-02-04T09:50:47.665Z,90.96
2019-02-04T09:53:16.973Z,90.81
2019-02-04T09:55:49.216Z,90.80
2019-02-04T09:58:18.450Z,90.57
2019-02-04T10:00:47.976Z,89.69
2019-02-04T10:03:17.215Z,89.30
2019-02-04T10:05:46.739Z,89.06
2019-02-04T10:08:15.972Z,89.53
2019-02-04T10:10:45.244Z,88.76
2019-02-04T10:13:14.559Z,88.33
2019-02-04T10:15:45.896Z,88.33
2019-02-04T10:18:16.450Z,87.90
2019-02-04T10:20:45.655Z,87.39
2019-02-04T10:23:15.944Z,87.17
2019-02-04T10:25:46.118Z,87.17
2019-02-04T10:28:16.141Z,86.23
2019-02-04T10:30:45.529Z,86.66
2019-02-04T10:33:16.025Z,86.20
2019-02-04T10:35:45.363Z,86.46
2019-02-04T10:38:16.450Z,86.16
2019-02-04T10:40:45.592Z,85.98
2019-02-04T10:43:14.910Z,85.87
2019-02-04T10:45:44.192Z,87.40
2019-02-04T10:48:14.472Z,84.54
2019-02-04T10:50:46.665Z,84.64
2019-02-04T10:53:14.604Z,84.81
2019-02-04T10:55:44.837Z,84.30
2019-02-04T10:58:14.511Z,83.86
2019-02-04T11:00:43.912Z,83.39
2019-02-04T11:03:13.247Z,84.12
2019-02-04T11:05:43.627Z,83.58
2019-02-04T11:08:14.802Z,82.75
2019-02-04T11:10:44.133Z,82.19
2019-02-04T11:13:15.262Z,82.05
2019-02-04T11:15:45.321Z,81.81
2019-02-04T11:18:15.779Z,81.43
2019-02-04T11:20:57.159Z,81.33
2019-02-04T11:23:17.308Z,81.08
2019-02-04T11:25:48.530Z,79.19
2019-02-04T11:28:25.100Z,78.76
2019-02-04T11:30:57.676Z,79.68
2019-02-04T11:33:27.047Z,78.85
2019-02-04T11:35:56.473Z,78.40
2019-02-04T11:38:26.805Z,78.77
2019-02-04T11:40:56.561Z,78.19
2019-02-04T11:43:25.797Z,77.58
2019-02-04T11:45:56.067Z,77.38
2019-02-04T11:48:25.361Z,77.00
2019-02-04T11:50:55.577Z,76.01
2019-02-04T11:53:32.461Z,76.30
2019-02-04T11:55:55.757Z,75.92
2019-02-04T11:58:25.012Z,75.77
2019-02-04T12:00:55.251Z,75.31
2019-02-04T12:03:25.423Z,75.25
2019-02-04T12:05:54.680Z,74.43
2019-02-04T12:08:24.301Z,73.77
2019-02-04T12:10:57.069Z,73.99
2019-02-04T12:13:26.306Z,73.21
2019-02-04T12:15:57.488Z,72.28
2019-02-04T12:18:26.725Z,72.38
2019-02-04T12:20:56.880Z,71.28
2019-02-04T12:23:26.133Z,71.28
2019-02-04T12:25:55.378Z,71.08
2019-02-04T12:28:24.619Z,71.31
2019-02-04T12:30:53.956Z,71.03
2019-02-04T12:33:24.119Z,70.05
2019-02-04T12:35:53.393Z,68.89
2019-02-04T12:38:23.629Z,69.10
2019-02-04T12:40:52.995Z,69.40
2019-02-04T12:43:23.188Z,70.09
2019-02-04T12:45:53.371Z,69.50
2019-02-04T12:48:22.663Z,69.51
2019-02-04T12:50:58.967Z,69.59
2019-02-04T12:53:28.213Z,70.54
2019-02-04T12:55:57.461Z,69.65
2019-02-04T12:58:26.699Z,69.63
2019-02-04T13:00:56.010Z,69.46
2019-02-04T13:03:25.320Z,68.26
2019-02-04T13:05:54.591Z,67.33
2019-02-04T13:08:23.881Z,66.91
2019-02-04T13:10:54.056Z,66.68
2019-02-04T13:13:24.357Z,65.97
2019-02-04T13:15:53.625Z,66.41
2019-02-04T13:18:24.143Z,67.27
2019-02-04T13:20:53.387Z,66.21
2019-02-04T13:23:22.787Z,64.83
2019-02-04T13:25:52.038Z,65.20
2019-02-04T13:28:21.467Z,64.91
2019-02-04T13:30:50.695Z,65.51
2019-02-04T13:33:20.299Z,66.82
2019-02-04T13:35:49.577Z,66.54
2019-02-04T13:38:19.859Z,67.37
2019-02-04T13:40:49.248Z,68.15
2019-02-04T13:43:18.551Z,67.38
2019-02-04T13:45:47.800Z,67.18
2019-02-04T13:48:17.117Z,67.16
2019-02-04T13:50:46.356Z,64.03
2019-02-04T13:53:16.568Z,62.68
2019-02-04T13:55:45.802Z,61.65
2019-02-04T13:58:15.098Z,61.68
2019-02-04T14:00:45.305Z,61.75
2019-02-04T14:03:17.563Z,60.77
2019-02-04T14:05:46.630Z,60.87
2019-02-04T14:08:15.921Z,61.08
2019-02-04T14:10:46.217Z,61.32
2019-02-04T14:13:15.587Z,60.26
2019-02-04T14:15:45.219Z,60.60
2019-02-04T14:18:14.434Z,61.00
2019-02-04T14:20:43.683Z,59.64
2019-02-04T14:23:12.941Z,60.79
2019-02-04T14:25:42.220Z,61.12
2019-02-04T14:28:12.409Z,60.73
2019-02-04T14:30:41.707Z,61.02
2019-02-04T14:33:11.072Z,60.21
2019-02-04T14:35:40.391Z,60.61
2019-02-04T14:38:09.867Z,60.10
2019-02-04T14:40:39.161Z,60.66
2019-02-04T14:43:11.873Z,60.52
2019-02-04T14:45:46.993Z,61.95
2019-02-04T14:48:26.311Z,62.24
2019-02-04T14:51:27.147Z,61.95
2019-02-04T14:54:00.382Z,61.46
2019-02-04T14:56:41.756Z,62.08
2019-02-04T14:59:16.826Z,62.13
2019-02-04T15:02:06.390Z,62.66
2019-02-04T15:04:50.683Z,62.52
2019-02-04T15:07:31.925Z,61.56
2019-02-04T15:10:35.132Z,62.31
2019-02-04T15:13:08.615Z,62.21
2019-02-04T15:15:49.843Z,62.24
2019-02-04T15:18:34.101Z,63.28
2019-02-04T15:21:30.703Z,62.83
2019-02-04T15:24:14.859Z,62.63
2019-02-04T15:26:50.061Z,61.86
2019-02-04T15:29:25.504Z,62.97
2019-02-04T15:32:15.930Z,62.50
2019-02-04T15:35:05.244Z,62.78
2019-02-04T15:37:43.873Z,62.54
2019-02-04T15:40:19.392Z,62.75
2019-02-04T15:43:10.213Z,63.02
2019-02-04T15:45:57.619Z,63.13
2019-02-04T15:48:30.117Z,62.92
2019-02-04T15:51:03.550Z,62.79
2019-02-04T15:53:32.844Z,63.70
2019-02-04T15:56:04.817Z,62.66
2019-02-04T15:58:34.093Z,62.89
2019-02-04T16:01:04.832Z,63.36
2019-02-04T16:03:35.160Z,63.78
2019-02-04T16:06:04.470Z,63.75
2019-02-04T16:08:33.725Z,65.00
2019-02-04T16:11:02.970Z,63.71
2019-02-04T16:13:32.215Z,63.10
2019-02-04T16:16:02.402Z,63.49
2019-02-04T16:18:31.657Z,62.75
2019-02-04T16:21:01.837Z,62.35
2019-02-04T16:23:31.081Z,62.34
2019-02-04T16:26:00.591Z,62.23
2019-02-04T16:28:29.875Z,62.73
2019-02-04T16:30:59.257Z,62.26
2019-02-04T16:33:28.487Z,63.90
2019-02-04T16:35:57.723Z,64.63
2019-02-04T16:38:26.956Z,65.93
2019-02-04T16:40:57.548Z,67.04
2019-02-04T16:43:26.830Z,66.93
2019-02-04T16:45:57.197Z,68.45
2019-02-04T16:48:26.440Z,67.99
2019-02-04T16:51:10.941Z,68.51
2019-02-04T16:53:27.519Z,68.38
2019-02-04T16:55:56.840Z,68.42
2019-02-04T16:58:27.347Z,68.21
2019-02-04T17:00:56.575Z,68.79
2019-02-04T17:03:25.825Z,70.00
2019-02-04T17:05:55.077Z,68.16
2019-02-04T17:08:24.384Z,68.99
2019-02-04T17:10:53.632Z,69.34
2019-02-04T17:13:22.879Z,69.97
2019-02-04T17:15:52.109Z,71.05
2019-02-04T17:18:25.376Z,70.74
2019-02-04T17:20:54.728Z,70.39
2019-02-04T17:23:23.949Z,70.60
2019-02-04T17:25:53.193Z,71.62
2019-02-04T17:28:22.426Z,71.37
2019-02-04T17:30:51.671Z,71.23
2019-02-04T17:33:22.793Z,69.34
2019-02-04T17:35:52.064Z,69.03
2019-02-04T17:38:21.576Z,68.19
2019-02-04T17:40:50.826Z,67.41
2019-02-04T17:43:20.045Z,66.94
2019-02-04T17:45:49.258Z,66.43
2019-02-04T17:48:18.502Z,65.60
2019-02-04T17:50:47.740Z,62.81
2019-02-04T17:53:17.409Z,64.19
2019-02-04T17:55:47.824Z,64.52
2019-02-04T17:58:17.080Z,63.98
2019-02-04T18:00:50.502Z,63.82
2019-02-04T18:03:21.718Z,63.44
2019-02-04T18:05:50.977Z,63.48
2019-02-04T18:08:20.381Z,63.65
2019-02-04T18:10:49.901Z,63.22
2019-02-04T18:13:19.203Z,62.69
2019-02-04T18:15:48.469Z,63.06
2019-02-04T18:18:23.111Z,62.55
2019-02-04T18:20:53.612Z,61.95
2019-02-04T18:23:22.880Z,62.57
2019-02-04T18:25:52.128Z,62.58
2019-02-04T18:28:21.381Z,62.96
2019-02-04T18:30:50.603Z,62.20
2019-02-04T18:33:20.094Z,62.54
2019-02-04T18:35:50.275Z,62.62
2019-02-04T18:38:19.553Z,63.00
2019-02-04T18:40:50.009Z,61.69
2019-02-04T18:43:20.223Z,62.21
2019-02-04T18:45:49.452Z,62.90
2019-02-04T18:48:18.720Z,63.37
2019-02-04T18:50:48.339Z,63.68
2019-02-04T18:53:17.715Z,63.02
2019-02-04T18:55:46.945Z,63.23
2019-02-04T18:58:16.699Z,63.13
2019-02-04T19:00:46.489Z,63.25
2019-02-04T19:03:17.619Z,63.89
2019-02-04T19:05:48.499Z,64.07
2019-02-04T19:08:17.821Z,63.86
2019-02-04T19:10:47.205Z,64.18
2019-02-04T19:13:17.643Z,63.39
2019-02-04T19:15:47.082Z,63.51
2019-02-04T19:18:18.781Z,63.35
2019-02-04T19:20:48.368Z,63.39
2019-02-04T19:23:17.622Z,63.86
2019-02-04T19:25:47.021Z,64.39
2019-02-04T19:28:16.413Z,64.10
2019-02-04T19:30:49.063Z,65.71
2019-02-04T19:33:18.379Z,66.93
2019-02-04T19:35:47.658Z,66.58
2019-02-04T19:38:17.062Z,66.96
2019-02-04T19:40:47.784Z,67.25
2019-02-04T19:43:17.500Z,66.38
2019-02-04T19:45:47.614Z,66.78
2019-02-04T19:48:18.950Z,67.11
2019-02-04T19:50:48.278Z,67.43
2019-02-04T19:53:17.589Z,67.81
2019-02-04T19:55:46.934Z,67.73
2019-02-04T19:58:16.264Z,67.61
2019-02-04T20:00:45.505Z,67.72
2019-02-04T20:03:14.758Z,67.15
2019-02-04T20:05:44.006Z,66.29
2019-02-04T20:08:13.240Z,66.76
2019-02-04T20:10:42.712Z,66.89
2019-02-04T20:13:12.132Z,66.25
2019-02-04T20:15:41.471Z,66.47
2019-02-04T20:18:10.806Z,66.47
2019-02-04T20:20:42.445Z,66.02
2019-02-04T20:23:12.852Z,66.56
2019-02-04T20:25:42.067Z,67.28
2019-02-04T20:28:11.398Z,67.36
2019-02-04T20:30:46.050Z,67.22
2019-02-04T20:33:15.589Z,67.71
2019-02-04T20:35:44.920Z,67.31
2019-02-04T20:38:14.254Z,67.09
2019-02-04T20:40:43.888Z,67.21
2019-02-04T20:43:13.168Z,66.94
2019-02-04T20:45:42.459Z,67.17
2019-02-04T20:48:13.633Z,67.14
2019-02-04T20:50:48.432Z,67.58
2019-02-04T20:53:17.727Z,67.64
2019-02-04T20:55:46.970Z,67.08
2019-02-04T20:58:16.218Z,66.58
2019-02-04T21:00:45.439Z,66.75
2019-02-04T21:03:14.696Z,67.53
2019-02-04T21:05:43.937Z,66.72
2019-02-04T21:08:13.214Z,67.15
2019-02-04T21:10:42.636Z,67.35
2019-02-04T21:13:13.275Z,67.62
2019-02-04T21:15:44.106Z,67.85
2019-02-04T21:18:13.632Z,68.01
2019-02-04T21:20:42.926Z,68.15
2019-02-04T21:23:12.198Z,69.31
2019-02-04T21:25:41.437Z,70.83
2019-02-04T21:28:10.679Z,71.26
2019-02-04T21:30:42.252Z,70.94
2019-02-04T21:33:11.479Z,71.91
2019-02-04T21:35:40.723Z,72.94
2019-02-04T21:38:11.317Z,74.39
2019-02-04T21:40:40.772Z,74.84
2019-02-04T21:43:09.998Z,76.13
2019-02-04T21:45:39.530Z,76.52
2019-02-04T21:48:08.754Z,76.81
2019-02-04T21:50:38.009Z,76.77
2019-02-04T21:53:07.431Z,76.70
2019-02-04T21:55:36.746Z,77.93
2019-02-04T21:58:06.130Z,78.68
2019-02-04T22:00:37.563Z,79.15
2019-02-04T22:03:08.076Z,79.57
2019-02-04T22:05:37.300Z,80.01
2019-02-04T22:08:06.880Z,80.71
2019-02-04T22:10:36.167Z,81.58
2019-02-04T22:13:05.557Z,81.33
2019-02-04T22:15:35.064Z,81.67
2019-02-04T22:18:05.925Z,83.21
2019-02-04T22:20:37.459Z,83.31
2019-02-04T22:23:06.729Z,83.43
2019-02-04T22:25:35.956Z,83.10
2019-02-04T22:28:05.647Z,84.63
2019-02-04T22:30:34.906Z,84.25
2019-02-04T22:33:04.220Z,85.10
2019-02-04T22:35:33.447Z,86.09
2019-02-04T22:38:02.892Z,86.22
2019-02-04T22:40:32.136Z,87.59
2019-02-04T22:43:01.484Z,87.38
2019-02-04T22:45:30.738Z,88.26
2019-02-04T22:48:00.055Z,88.82
2019-02-04T22:50:31.103Z,89.31
2019-02-04T22:53:02.445Z,90.05
2019-02-04T22:55:32.824Z,90.57
2019-02-04T22:58:02.184Z,91.56
2019-02-04T23:00:41.484Z,92.25
2019-02-04T23:03:12.912Z,94.69
2019-02-04T23:05:42.178Z,96.12
2019-02-04T23:08:11.363Z,96.07
2019-02-04T23:10:40.611Z,95.40
2019-02-04T23:13:09.841Z,96.80
2019-02-04T23:15:39.164Z,97.04
2019-02-04T23:18:08.553Z,97.49
2019-02-04T23:20:37.890Z,99.06
2019-02-04T23:23:07.117Z,99.69
2019-02-04T23:25:43.364Z,99.60
2019-02-04T23:28:07.462Z,99.68
2019-02-04T23:30:38.770Z,100.00
2019-02-04T23:33:08.322Z,100.00
2019-02-04T23:35:37.696Z,100.00
2019-02-04T23:38:08.013Z,100.00
2019-02-04T23:40:37.282Z,100.00
2019-02-04T23:43:06.580Z,100.00
2019-02-04T23:45:35.832Z,100.00
2019-02-04T23:48:05.326Z,100.00
2019-02-04T23:50:34.618Z,100.00
2019-02-04T23:53:04.417Z,100.00
2019-02-04T23:55:33.665Z,100.00
2019-02-04T23:58:02.892Z,100.00
